aviador You're here:

CYRV Decoded Metar

REVELSTOKE AIRPO in BC, CANADA
Report Time2017-08-24 00:00:00
UTC Time2017-08-24 01:05:37
Flight Rules vfr VFR
WindCalm
Visibility9999 m
Phenomena:N/A
Clouds:Broken 110 Hf
Broken 130 Hf
Expected CloudBase > 4,000 ft AGL from Temp-Dew spread
Ceiling11,000 ft
Temp23°C (ISA +11)
Dew Point13°C (53% RH)
QNH1008 hPa
Density Alt3,087 ft
Elevation1,453 ft
Report Wrong Elevation
Raw Report
CYRV 240000Z AUTO 00000KT 9SM BKN110 BKN130 23/13 A2976 RMK SLP077
DENSITY ALT 2800FT=

Extra information for CYRV:More info

Metar Taf Metar & Taf Last 4 Metars F.Rules Stats Wind Profile Meteogram Temp Stats Airport Information Weather charts Add Link Nearby VenuesMetar ALERT Operation Metar Decoded Social comments